Time;durP1;ratioP1;P1;durP2;ratioP2;P2;SDS_P1;SDS_P2;PMS_P1;PMS_P2;Temp;Humidity;BMP_temperature;BMP_pressure;BME280_temperature;BME280_humidity;BME280_pressure;Samples;Min_cycle;Max_cycle;Signal;HPM_P1;HPM_P2
2021/03/24 00:00:37;;;;;;;71.60;36.92;;;;;;;3.79;69.80;101099.59;4996315;28;20140;-75
2021/03/24 00:03:05;;;;;;;67.25;35.80;;;;;;;3.80;70.06;101086.66;4995484;28;20519;-75
2021/03/24 00:05:34;;;;;;;69.88;35.85;;;;;;;3.79;69.80;101091.34;4995410;28;20063;-75
2021/03/24 00:08:01;;;;;;;70.28;36.05;;;;;;;3.78;69.63;101089.69;4996433;28;20062;-76
2021/03/24 00:10:30;;;;;;;67.72;35.00;;;;;;;3.76;69.61;101094.63;4996049;28;20073;-75
2021/03/24 00:12:59;;;;;;;70.60;36.28;;;;;;;3.75;70.49;101092.94;4995518;28;20050;-75
2021/03/24 00:15:27;;;;;;;73.95;37.63;;;;;;;3.73;70.30;101100.63;4995905;28;20070;-75
2021/03/24 00:17:54;;;;;;;73.70;38.38;;;;;;;3.73;70.68;101102.53;4995895;28;20071;-75
2021/03/24 00:20:23;;;;;;;75.30;37.15;;;;;;;3.75;70.55;101097.63;4995684;28;20062;-75
2021/03/24 00:22:50;;;;;;;71.53;36.47;;;;;;;3.74;70.74;101107.81;4995410;28;20058;-75
2021/03/24 00:25:18;;;;;;;75.63;38.50;;;;;;;3.72;70.53;101096.22;4989116;28;20073;-75
2021/03/24 00:27:48;;;;;;;75.13;37.13;;;;;;;3.71;71.04;101104.72;4975882;28;20409;-75
2021/03/24 00:30:17;;;;;;;73.57;35.97;;;;;;;3.70;70.58;101100.31;4976161;28;20051;-75
2021/03/24 00:32:44;;;;;;;76.50;36.50;;;;;;;3.69;70.96;101101.38;4975178;28;20062;-75
2021/03/24 00:35:12;;;;;;;67.47;36.15;;;;;;;3.63;70.90;101104.06;4990732;28;20069;-75
2021/03/24 00:37:39;;;;;;;74.00;37.80;;;;;;;3.64;71.00;101104.91;4995340;28;20062;-75
2021/03/24 00:40:09;;;;;;;70.53;35.60;;;;;;;3.64;70.14;101094.72;4995330;28;20054;-76
2021/03/24 00:42:36;;;;;;;70.45;35.55;;;;;;;3.66;70.07;101099.97;4995225;28;20069;-75
2021/03/24 00:45:06;;;;;;;70.00;36.38;;;;;;;3.59;70.96;101091.88;4994878;28;20058;-75
2021/03/24 00:47:33;;;;;;;;;;;;;;;3.60;70.58;101092.72;4995278;28;20061;-75
2021/03/24 00:50:00;;;;;;;67.05;35.28;;;;;;;3.53;69.80;101087.38;4995309;28;19922;-75
2021/03/24 00:52:28;;;;;;;65.97;34.20;;;;;;;3.51;69.56;101084.06;5003446;28;20058;-75
2021/03/24 00:54:55;;;;;;;66.95;34.65;;;;;;;3.51;70.03;101089.56;5003759;28;20062;-76
2021/03/24 00:57:24;;;;;;;71.78;35.08;;;;;;;3.47;70.71;101082.88;5003365;28;20065;-75
2021/03/24 00:59:53;;;;;;;68.65;35.78;;;;;;;3.49;70.09;101080.72;5004161;28;20060;-77
2021/03/24 01:02:26;;;;;;;63.08;34.08;;;;;;;3.49;70.13;101077.97;5004270;28;20061;-77
2021/03/24 01:04:54;;;;;;;63.13;34.58;;;;;;;3.48;69.97;101073.53;5003570;28;20499;-77
2021/03/24 01:07:23;;;;;;;68.20;34.13;;;;;;;3.45;70.38;101071.28;5002976;28;20069;-77
2021/03/24 01:09:56;;;;;;;69.43;35.15;;;;;;;3.45;69.84;101087.81;5003516;28;20069;-77
2021/03/24 01:12:25;;;;;;;60.72;34.80;;;;;;;3.43;70.43;101078.97;5003412;28;20054;-76
2021/03/24 01:14:53;;;;;;;67.40;33.60;;;;;;;3.41;70.64;101078.38;5004186;28;20062;-77
2021/03/24 01:17:21;;;;;;;64.88;33.70;;;;;;;3.36;70.50;101076.38;5002689;28;20058;-76
2021/03/24 01:19:52;;;;;;;63.70;34.83;;;;;;;3.36;69.83;101078.28;5003256;28;20058;-76
2021/03/24 01:22:20;;;;;;;65.70;33.72;;;;;;;3.35;70.21;101073.88;5003965;28;20058;-76
2021/03/24 01:24:48;;;;;;;66.35;35.00;;;;;;;3.36;70.07;101070.03;5000864;28;20062;-77
2021/03/24 01:27:19;;;;;;;66.93;33.63;;;;;;;3.35;69.94;101066.44;4983383;28;20059;-76
2021/03/24 01:29:47;;;;;;;;;;;;;;;3.31;70.84;101072.72;4984349;28;20058;-76
2021/03/24 01:32:16;;;;;;;73.90;36.53;;;;;;;3.27;70.55;101066.88;4984452;28;19922;-77
2021/03/24 01:34:44;;;;;;;70.35;36.63;;;;;;;3.22;70.60;101067.63;4996541;28;20058;-76
2021/03/24 01:37:17;;;;;;;67.88;35.78;;;;;;;3.22;70.90;101070.38;5005131;28;20072;-76
2021/03/24 01:39:47;;;;;;;69.47;35.85;;;;;;;3.22;71.08;101080.56;5002950;28;20066;-76
2021/03/24 01:42:16;;;;;;;65.03;36.42;;;;;;;3.23;70.56;101079.47;5003052;28;20058;-76
2021/03/24 01:45:08;;;;;;;65.80;33.53;;;;;;;3.23;70.61;101080.31;5002574;28;20058;-76
2021/03/24 01:47:36;;;;;;;61.83;32.65;;;;;;;3.21;70.71;101074.22;5002426;28;20061;-76
2021/03/24 01:50:12;;;;;;;60.45;32.42;;;;;;;3.24;70.15;101078.41;5003241;28;20054;-76
2021/03/24 01:52:45;;;;;;;58.42;31.73;;;;;;;3.18;70.00;101077.47;5003421;28;20065;-76
2021/03/24 01:55:19;;;;;;;56.05;31.05;;;;;;;3.21;70.02;101076.97;5001499;28;20065;-76
2021/03/24 01:57:49;;;;;;;59.00;31.80;;;;;;;3.11;70.54;101071.31;5002734;28;20054;-76
2021/03/24 02:00:27;;;;;;;66.13;33.63;;;;;;;3.15;70.72;101072.47;5002110;28;20066;-76
2021/03/24 02:02:58;;;;;;;65.63;31.90;;;;;;;3.16;71.10;101073.31;5001671;28;20061;-76
2021/03/24 02:05:31;;;;;;;58.03;32.05;;;;;;;3.16;71.41;101076.88;5001346;28;20058;-77
2021/03/24 02:08:08;;;;;;;59.90;30.20;;;;;;;3.13;71.58;101071.91;4999765;28;20066;-77
2021/03/24 02:10:45;;;;;;;65.50;30.90;;;;;;;3.15;71.36;101071.63;4999656;28;20058;-77
2021/03/24 02:13:23;;;;;;;65.65;30.95;;;;;;;3.15;71.00;101075.22;4999541;28;20058;-77
2021/03/24 02:15:58;;;;;;;56.72;29.42;;;;;;;3.15;71.50;101077.97;4980220;28;20069;-77
2021/03/24 02:18:31;;;;;;;59.88;30.35;;;;;;;3.13;71.29;101074.66;4980188;28;20062;-77
2021/03/24 02:21:07;;;;;;;58.63;29.55;;;;;;;3.17;71.45;101073.06;4979301;28;20078;-77
2021/03/24 02:23:47;;;;;;;53.95;28.20;;;;;;;3.19;70.82;101070.91;4981984;28;20062;-77
2021/03/24 02:26:28;;;;;;;57.50;29.80;;;;;;;3.16;70.55;101065.03;4998902;28;20504;-77
2021/03/24 02:29:03;;;;;;;54.25;28.17;;;;;;;3.11;71.19;101067.69;4998823;28;20069;-77
2021/03/24 02:31:33;;;;;;;57.53;29.63;;;;;;;3.14;71.12;101061.72;4993376;28;20058;-76
2021/03/24 02:34:04;;;;;;;58.17;30.63;;;;;;;3.13;70.64;101062.78;4992792;28;20050;-77
2021/03/24 02:36:33;;;;;;;54.42;28.02;;;;;;;3.13;70.71;101066.38;4992928;28;20069;-77
2021/03/24 02:39:04;;;;;;;54.38;29.52;;;;;;;3.15;70.66;101055.97;4993235;28;20062;-77
2021/03/24 02:41:32;;;;;;;51.88;28.85;;;;;;;3.12;70.72;101061.94;4993441;28;20055;-77
2021/03/24 02:44:00;;;;;;;55.67;29.52;;;;;;;3.10;69.99;101066.88;4992473;28;20050;-77
2021/03/24 02:46:28;;;;;;;49.97;27.15;;;;;;;3.08;70.79;101062.72;4982797;28;20050;-77
2021/03/24 02:49:01;;;;;;;49.95;26.70;;;;;;;3.09;70.41;101067.97;4992940;28;20059;-77
2021/03/24 02:51:33;;;;;;;48.53;26.98;;;;;;;3.08;70.62;101055.28;4993245;28;20054;-77
2021/03/24 02:54:00;;;;;;;52.70;27.23;;;;;;;3.09;70.30;101058.84;4993196;28;20061;-77
2021/03/24 02:56:32;;;;;;;53.85;27.95;;;;;;;3.10;69.91;101061.38;4992687;28;20488;-76
2021/03/24 02:59:00;;;;;;;52.90;26.58;;;;;;;3.09;70.06;101061.59;4973819;28;20117;-77
2021/03/24 03:01:36;;;;;;;49.72;26.33;;;;;;;3.04;69.88;101059.63;4973821;28;20066;-77
2021/03/24 03:04:11;;;;;;;48.22;26.27;;;;;;;3.05;70.29;101055.78;4979558;28;20050;-77
2021/03/24 03:06:39;;;;;;;48.00;26.70;;;;;;;3.07;69.76;101058.28;4993877;28;20134;-76
2021/03/24 03:09:14;;;;;;;46.45;25.23;;;;;;;3.04;70.37;101057.72;4992970;28;20069;-76
2021/03/24 03:11:51;;;;;;;42.15;24.38;;;;;;;2.96;69.99;101055.38;4993274;28;20058;-76
2021/03/24 03:14:27;;;;;;;48.55;25.95;;;;;;;2.96;70.64;101058.13;4992407;28;20050;-76
2021/03/24 03:16:58;;;;;;;44.65;24.55;;;;;;;2.94;70.58;101060.28;4993405;28;20054;-76
2021/03/24 03:19:30;;;;;;;47.65;26.98;;;;;;;2.96;69.82;101058.13;4993112;28;20069;-76
2021/03/24 03:22:04;;;;;;;44.92;24.27;;;;;;;2.92;69.69;101065.22;4993064;28;20046;-76
2021/03/24 03:24:37;;;;;;;47.05;25.23;;;;;;;2.92;69.59;101062.47;4993461;28;20409;-76
2021/03/24 03:27:08;;;;;;;42.72;23.70;;;;;;;2.92;69.93;101064.34;4974004;28;20324;-77
2021/03/24 03:29:36;;;;;;;46.10;23.70;;;;;;;2.89;69.63;101064.88;4973277;28;20082;-76
2021/03/24 03:32:05;;;;;;;45.00;23.05;;;;;;;2.87;69.30;101067.03;4973952;28;20428;-76
2021/03/24 03:34:35;;;;;;;41.45;23.80;;;;;;;2.87;69.35;101067.03;4983892;28;20058;-76
2021/03/24 03:37:02;;;;;;;41.15;23.00;;;;;;;2.83;69.52;101067.53;4993680;28;20519;-76
2021/03/24 03:39:31;;;;;;;42.10;24.40;;;;;;;2.80;69.53;101062.53;4994034;28;20061;-77
2021/03/24 03:42:01;;;;;;;47.42;25.23;;;;;;;2.80;69.17;101057.03;4997060;28;20062;-76
2021/03/24 03:44:30;;;;;;;45.25;23.95;;;;;;;2.78;69.60;101053.69;4999318;28;20058;-76
2021/03/24 03:47:05;;;;;;;49.03;24.33;;;;;;;2.77;69.48;101052.03;4997082;28;20062;-76
2021/03/24 03:49:35;;;;;;;45.88;24.48;;;;;;;2.73;69.96;101053.59;4997068;28;20104;-76
2021/03/24 03:52:18;;;;;;;47.95;25.30;;;;;;;2.72;70.27;101049.16;4996332;28;20058;-76
2021/03/24 03:54:50;;;;;;;51.00;26.02;;;;;;;2.64;70.13;101050.41;4996180;28;20054;-76
2021/03/24 03:57:23;;;;;;;52.70;27.90;;;;;;;2.68;70.51;101053.50;4996603;28;20058;-76
2021/03/24 03:59:57;;;;;;;52.03;26.92;;;;;;;2.67;70.56;101049.09;4997033;28;20073;-76
2021/03/24 04:02:34;;;;;;;47.17;25.10;;;;;;;2.66;70.58;101046.56;4996251;28;20062;-77
2021/03/24 04:05:06;;;;;;;51.67;26.40;;;;;;;2.62;70.28;101051.72;4996408;28;20054;-77
2021/03/24 04:07:37;;;;;;;54.83;26.02;;;;;;;2.65;70.62;101054.00;4996487;28;20066;-76
2021/03/24 04:10:05;;;;;;;49.45;25.90;;;;;;;2.65;70.73;101048.50;4995721;28;20061;-77
2021/03/24 04:12:35;;;;;;;49.83;27.05;;;;;;;2.62;70.16;101049.84;4995950;28;20518;-77
2021/03/24 04:15:05;;;;;;;50.85;26.85;;;;;;;2.62;70.18;101059.97;4995102;28;20093;-76
2021/03/24 04:17:39;;;;;;;50.30;25.38;;;;;;;2.59;70.40;101055.81;4995798;28;20069;-76
2021/03/24 04:20:08;;;;;;;47.97;24.27;;;;;;;2.51;70.45;101049.88;4995168;28;20146;-76
2021/03/24 04:22:36;;;;;;;47.25;24.23;;;;;;;2.54;70.76;101041.13;4995796;28;20061;-76
2021/03/24 04:25:05;;;;;;;46.00;24.25;;;;;;;2.54;69.71;101054.88;4995181;28;20519;-77
2021/03/24 04:27:36;;;;;;;46.35;24.88;;;;;;;2.54;70.21;101041.13;4995397;28;20058;-76
2021/03/24 04:30:07;;;;;;;46.83;25.13;;;;;;;2.51;69.99;101047.97;4995493;28;20054;-76
2021/03/24 04:32:35;;;;;;;51.35;25.85;;;;;;;2.49;69.96;101046.56;4995194;28;20058;-77
2021/03/24 04:35:05;;;;;;;44.08;23.50;;;;;;;2.51;69.69;101041.63;4994983;28;20139;-76
2021/03/24 04:37:37;;;;;;;46.60;24.90;;;;;;;2.48;70.35;101051.22;4994810;28;20062;-77
2021/03/24 04:40:08;;;;;;;50.50;25.17;;;;;;;2.44;69.94;101050.88;4995680;28;20081;-77
2021/03/24 04:42:41;;;;;;;48.65;24.13;;;;;;;2.43;69.96;101051.94;4995192;28;20488;-77
2021/03/24 04:45:25;;;;;;;46.63;23.98;;;;;;;2.41;69.86;101045.84;4994717;28;20070;-76
2021/03/24 04:47:55;;;;;;;45.05;23.63;;;;;;;2.39;69.57;101049.94;4994856;28;20066;-76
2021/03/24 04:50:24;;;;;;;;;;;;;;;2.38;70.02;101053.78;4995797;28;20115;-76
2021/03/24 04:52:51;;;;;;;49.33;24.67;;;;;;;2.30;70.22;101049.50;4993776;28;19921;-76
2021/03/24 04:55:23;;;;;;;54.00;25.48;;;;;;;2.29;69.96;101050.59;4994433;28;20054;-76
2021/03/24 04:57:53;;;;;;;50.17;25.85;;;;;;;2.23;70.53;101054.31;4994671;28;20061;-76
2021/03/24 05:00:32;;;;;;;50.58;26.17;;;;;;;2.27;70.52;101057.38;4994421;28;20062;-76
2021/03/24 05:03:07;;;;;;;50.10;25.17;;;;;;;2.27;70.83;101063.75;4994639;28;20488;-76
2021/03/24 05:05:41;;;;;;;51.65;25.65;;;;;;;2.26;70.56;101062.06;4994545;28;20370;-76
2021/03/24 05:08:15;;;;;;;51.92;25.58;;;;;;;2.26;71.13;101063.97;4994912;28;20416;-76
2021/03/24 05:10:42;;;;;;;49.97;24.58;;;;;;;2.29;71.10;101061.56;4994569;28;20054;-76
2021/03/24 05:13:17;;;;;;;47.38;24.90;;;;;;;2.30;71.42;101063.22;4994447;28;20058;-76
2021/03/24 05:15:55;;;;;;;48.38;24.15;;;;;;;2.29;71.32;101063.47;4994338;28;20058;-76
2021/03/24 05:18:23;;;;;;;51.30;25.08;;;;;;;2.29;71.22;101056.09;4994511;28;20546;-76
2021/03/24 05:20:57;;;;;;;49.35;24.52;;;;;;;2.27;71.50;101049.13;4994585;28;20062;-78
2021/03/24 05:23:27;;;;;;;49.50;25.70;;;;;;;2.29;71.05;101064.31;4995038;28;20064;-76
2021/03/24 05:25:58;;;;;;;46.85;25.08;;;;;;;2.26;70.67;101051.06;4985770;28;20476;-76
2021/03/24 05:28:31;;;;;;;50.75;24.80;;;;;;;2.24;70.86;101062.28;4993893;28;20058;-76
2021/03/24 05:31:03;;;;;;;50.30;25.48;;;;;;;2.26;71.11;101067.56;4994259;28;20069;-76
2021/03/24 05:33:35;;;;;;;47.13;25.90;;;;;;;2.27;70.71;101060.13;4993337;28;20057;-76
2021/03/24 05:36:09;;;;;;;49.33;26.77;;;;;;;2.22;71.35;101060.88;4994011;28;20067;-76
2021/03/24 05:38:38;;;;;;;48.95;25.85;;;;;;;2.21;70.59;101064.72;4993966;28;20085;-76
2021/03/24 05:41:11;;;;;;;52.20;25.75;;;;;;;2.19;70.96;101077.88;4994182;28;20054;-76
2021/03/24 05:44:17;;;;;;;50.38;26.23;;;;;;;2.25;71.10;101065.91;4993540;28;20051;-76
2021/03/24 05:47:06;;;;;;;51.47;26.15;;;;;;;2.32;71.30;101068.50;4914406;28;20065;-76
2021/03/24 05:49:41;;;;;;;46.45;25.00;;;;;;;2.32;70.81;101061.06;4993916;28;20050;-76
2021/03/24 05:52:19;;;;;;;49.72;25.60;;;;;;;2.36;70.72;101062.25;4994062;28;20439;-77
2021/03/24 05:55:07;;;;;;;49.65;26.17;;;;;;;2.43;70.68;101062.94;4993154;28;20054;-77
2021/03/24 05:57:48;;;;;;;50.15;25.25;;;;;;;2.52;70.88;101059.78;4998582;28;20062;-77
2021/03/24 06:00:25;;;;;;;45.47;23.45;;;;;;;2.53;70.67;101066.97;4991737;28;20046;-76
2021/03/24 06:03:03;;;;;;;49.10;24.70;;;;;;;2.62;70.25;101070.97;4993156;28;20073;-76
2021/03/24 06:05:36;;;;;;;45.38;24.30;;;;;;;2.63;71.38;101056.16;4994205;28;20057;-76
2021/03/24 06:08:44;;;;;;;42.92;23.42;;;;;;;2.75;70.30;101065.19;4993737;28;20070;-76
2021/03/24 06:11:28;;;;;;;48.70;24.63;;;;;;;2.87;69.87;101067.84;4983466;28;20424;-76
2021/03/24 06:14:46;;;;;;;46.83;24.20;;;;;;;2.95;69.98;101063.88;4992257;28;20058;-76
2021/03/24 06:17:43;;;;;;;48.38;24.00;;;;;;;3.04;70.87;101063.22;4992550;28;20061;-76
2021/03/24 06:20:20;;;;;;;40.65;22.70;;;;;;;3.13;70.06;101060.88;4991126;28;20050;-76
2021/03/24 06:23:16;;;;;;;46.42;23.88;;;;;;;3.17;70.44;101064.81;4993038;28;20077;-76
2021/03/24 06:25:46;;;;;;;44.00;23.23;;;;;;;3.24;69.74;101057.19;4992975;28;20080;-77
2021/03/24 06:28:26;;;;;;;;;;;;;;;3.35;70.40;101057.38;4991641;28;20069;-76
2021/03/24 06:31:05;;;;;;;46.92;24.60;;;;;;;3.52;70.20;101057.34;4987497;28;19932;-76
2021/03/24 06:33:57;;;;;;;38.88;22.35;;;;;;;3.81;70.07;101055.28;4988664;28;21573;-76
2021/03/24 06:36:51;;;;;;;42.30;22.88;;;;;;;4.07;69.56;101049.00;4990189;28;20404;-77
2021/03/24 06:39:42;;;;;;;34.22;21.05;;;;;;;4.25;68.36;101060.78;4981911;28;20599;-76
2021/03/24 06:42:32;;;;;;;37.80;21.70;;;;;;;4.40;68.16;101066.47;4991431;28;20058;-77
2021/03/24 06:45:36;;;;;;;37.25;21.05;;;;;;;4.55;68.04;101054.75;4989325;28;20062;-76
2021/03/24 06:48:17;;;;;;;38.17;21.95;;;;;;;4.74;67.75;101062.69;4986168;28;20058;-76
2021/03/24 06:51:22;;;;;;;38.58;21.38;;;;;;;4.99;67.18;101062.91;4983665;28;20058;-76
2021/03/24 06:54:14;;;;;;;35.40;21.58;;;;;;;5.26;66.69;101057.34;4988550;28;20063;-76
2021/03/24 06:57:03;;;;;;;34.75;20.00;;;;;;;5.49;66.24;101063.59;4992401;28;20054;-76
2021/03/24 06:59:56;;;;;;;35.20;20.92;;;;;;;5.85;65.41;101055.50;4993697;28;20488;-76
2021/03/24 07:03:14;;;;;;;34.22;18.63;;;;;;;6.67;63.15;101061.38;4991193;28;20054;-77
2021/03/24 07:06:00;;;;;;;31.63;18.70;;;;;;;7.81;59.84;101044.44;4979616;28;20067;-78
2021/03/24 07:08:42;;;;;;;28.13;18.55;;;;;;;8.79;56.20;101055.91;4976272;28;20061;-78
2021/03/24 07:11:29;;;;;;;29.60;18.90;;;;;;;9.73;53.87;101055.66;4975260;28;20059;-78
2021/03/24 07:14:40;;;;;;;29.27;18.80;;;;;;;10.86;50.86;101048.66;4992946;28;20511;-78
2021/03/24 07:17:24;;;;;;;29.92;19.88;;;;;;;11.86;48.64;101053.06;4999348;28;20461;-76
2021/03/24 07:20:30;;;;;;;31.75;19.60;;;;;;;12.91;45.22;101050.25;4997477;28;20058;-76
2021/03/24 07:23:13;;;;;;;28.83;19.85;;;;;;;13.94;43.82;101050.44;4942187;28;20055;-76
2021/03/24 07:25:44;;;;;;;28.48;19.48;;;;;;;14.89;40.77;101041.47;4996603;28;20058;-77
2021/03/24 07:28:31;;;;;;;22.52;17.70;;;;;;;15.61;38.81;101033.44;4996715;28;20058;-75
2021/03/24 07:31:31;;;;;;;24.75;17.80;;;;;;;16.44;36.74;101048.94;4997017;28;20054;-75
2021/03/24 07:34:11;;;;;;;25.08;18.67;;;;;;;17.08;35.69;101045.03;4996861;28;20058;-76
2021/03/24 07:36:52;;;;;;;;;;;;;;;17.55;34.68;101043.91;4997553;28;20440;-78
2021/03/24 07:39:51;;;;;;;24.17;18.17;;;;;;;18.54;33.44;101044.84;4996298;28;19925;-76
2021/03/24 07:43:06;;;;;;;27.08;19.85;;;;;;;19.05;31.75;101031.91;4997726;28;20058;-79
2021/03/24 07:46:10;;;;;;;23.55;18.48;;;;;;;19.84;29.99;101031.31;4977647;28;20380;-75
2021/03/24 07:49:10;;;;;;;22.50;18.08;;;;;;;20.49;28.62;101049.84;4977481;28;20058;-75
2021/03/24 07:52:15;;;;;;;22.88;18.98;;;;;;;21.15;28.14;101035.97;4979328;28;20059;-75
2021/03/24 07:54:53;;;;;;;22.48;18.25;;;;;;;21.58;26.95;101037.66;4982652;28;20054;-74
2021/03/24 07:57:31;;;;;;;22.35;19.05;;;;;;;21.94;26.65;101031.81;4974577;28;20063;-74
2021/03/24 08:00:06;;;;;;;24.20;19.38;;;;;;;22.50;25.95;101034.78;4988282;28;20058;-75
2021/03/24 08:02:55;;;;;;;26.65;19.98;;;;;;;23.16;25.03;101030.84;4986386;28;20543;-75
2021/03/24 08:06:07;;;;;;;23.63;17.50;;;;;;;23.51;23.75;101031.25;4990456;28;20046;-75
2021/03/24 08:08:55;;;;;;;23.38;19.05;;;;;;;24.26;23.60;101018.97;4971602;28;20491;-75
2021/03/24 08:11:28;;;;;;;21.67;18.15;;;;;;;24.88;23.39;101015.28;4993049;28;20059;-76
2021/03/24 08:14:14;;;;;;;23.42;18.55;;;;;;;25.09;22.20;101021.09;4993840;28;20066;-76
2021/03/24 08:17:10;;;;;;;21.15;17.45;;;;;;;25.80;21.67;101019.66;4986628;28;20069;-76
2021/03/24 08:19:57;;;;;;;23.27;18.00;;;;;;;26.51;20.74;101015.97;4993206;28;20054;-76
2021/03/24 08:22:39;;;;;;;24.73;18.42;;;;;;;26.55;19.50;101015.19;4987074;28;20507;-76
2021/03/24 08:25:22;;;;;;;20.90;16.52;;;;;;;26.99;19.06;101011.00;4992372;28;20495;-76
2021/03/24 08:27:58;;;;;;;19.30;16.77;;;;;;;27.01;19.02;101017.91;4989410;28;20054;-77
2021/03/24 08:30:27;;;;;;;21.35;17.10;;;;;;;26.98;18.84;101015.06;4981263;28;20073;-76
2021/03/24 08:33:32;;;;;;;19.23;15.32;;;;;;;26.15;19.39;101015.22;4981936;28;20450;-74
2021/03/24 08:36:08;;;;;;;19.65;16.70;;;;;;;26.32;19.95;101008.66;4991758;28;20057;-74
2021/03/24 08:39:28;;;;;;;21.23;17.35;;;;;;;26.52;19.34;101013.94;4992215;28;20412;-74
2021/03/24 08:42:28;;;;;;;20.60;17.40;;;;;;;27.12;18.68;101001.50;4931263;28;20063;-74
2021/03/24 08:45:04;;;;;;;21.30;18.05;;;;;;;27.74;18.28;101002.00;4974906;28;20497;-74
2021/03/24 08:47:40;;;;;;;22.55;17.98;;;;;;;28.44;17.45;101001.81;4992514;28;20054;-74
2021/03/24 08:50:14;;;;;;;24.10;18.52;;;;;;;28.60;17.38;100997.56;4992972;28;20065;-73
2021/03/24 08:52:52;;;;;;;22.20;18.05;;;;;;;28.80;17.47;100995.72;4988853;28;20062;-73
2021/03/24 08:55:47;;;;;;;22.35;17.55;;;;;;;29.51;16.32;100985.34;4988758;28;20409;-73
2021/03/24 08:58:23;;;;;;;23.48;18.00;;;;;;;29.67;16.35;100990.47;4984963;28;20294;-73
2021/03/24 09:01:10;;;;;;;23.48;19.50;;;;;;;30.66;15.22;100994.91;4992290;28;20058;-73
2021/03/24 09:03:50;;;;;;;22.17;19.10;;;;;;;30.70;15.46;100989.06;4993561;28;20062;-76
2021/03/24 09:06:29;;;;;;;21.35;18.67;;;;;;;31.10;15.17;100989.91;4989066;28;20515;-75
2021/03/24 09:09:08;;;;;;;24.08;20.65;;;;;;;30.76;15.48;100987.31;4993557;28;20488;-75
2021/03/24 09:11:42;;;;;;;24.00;19.42;;;;;;;31.62;15.02;100982.56;4992006;28;20101;-76
2021/03/24 09:14:24;;;;;;;24.35;20.83;;;;;;;32.60;13.87;100984.63;4990341;28;20056;-74
2021/03/24 09:17:38;;;;;;;25.27;19.20;;;;;;;32.71;13.45;100978.53;4992173;28;20055;-74
2021/03/24 09:20:41;;;;;;;24.35;20.20;;;;;;;32.87;13.45;100975.59;4984381;28;20050;-74
2021/03/24 09:23:49;;;;;;;25.13;21.73;;;;;;;32.72;13.69;100971.53;4988070;28;20411;-73
2021/03/24 09:26:31;;;;;;;25.92;20.80;;;;;;;33.60;13.08;100977.06;4981112;28;20527;-75
2021/03/24 09:29:12;;;;;;;23.63;20.88;;;;;;;33.66;12.82;100978.16;4988973;28;20065;-74
2021/03/24 09:32:07;;;;;;;26.98;22.20;;;;;;;34.39;12.23;100969.47;4985984;28;20420;-75
2021/03/24 09:34:50;;;;;;;25.98;22.55;;;;;;;34.95;12.07;100976.53;4991441;28;20058;-74
2021/03/24 09:37:22;;;;;;;32.10;26.48;;;;;;;35.95;11.23;100977.47;4991908;28;20065;-75
2021/03/24 09:39:52;;;;;;;32.38;27.02;;;;;;;36.45;10.73;100974.50;4986464;28;20063;-75
2021/03/24 09:42:23;;;;;;;27.63;24.70;;;;;;;36.98;10.06;100977.06;4988594;28;20073;-76
2021/03/24 09:45:06;;;;;;;30.92;25.33;;;;;;;37.20;10.13;100973.19;4991201;28;20047;-76
2021/03/24 09:47:50;;;;;;;28.88;25.65;;;;;;;36.59;10.04;100965.16;4993721;28;20062;-76
2021/03/24 09:50:26;;;;;;;29.77;26.65;;;;;;;37.46;10.32;100959.81;4990649;28;20057;-75
2021/03/24 09:52:57;;;;;;;31.80;27.13;;;;;;;37.88;9.46;100967.72;4992244;28;20361;-76
2021/03/24 09:55:31;;;;;;;30.58;26.92;;;;;;;37.89;9.38;100957.69;4990642;28;20507;-76
2021/03/24 09:58:38;;;;;;;29.67;25.85;;;;;;;38.22;9.20;100958.94;4991090;28;20058;-75
2021/03/24 10:01:16;;;;;;;28.67;25.10;;;;;;;38.32;8.99;100961.28;4992133;28;20472;-75
2021/03/24 10:03:50;;;;;;;29.63;25.85;;;;;;;38.53;9.30;100959.34;4993115;28;20065;-76
2021/03/24 10:06:25;;;;;;;28.85;25.73;;;;;;;39.03;9.02;100950.00;4990133;28;20061;-76
2021/03/24 10:09:04;;;;;;;30.27;26.60;;;;;;;39.31;8.19;100952.56;4991952;28;20469;-77
2021/03/24 10:11:49;;;;;;;30.63;26.88;;;;;;;39.35;8.44;100956.91;4992440;28;20050;-76
2021/03/24 10:14:23;;;;;;;30.20;26.00;;;;;;;39.16;8.64;100956.31;4992940;28;20050;-76
2021/03/24 10:16:59;;;;;;;28.52;25.13;;;;;;;39.20;8.63;100956.09;4990968;28;20054;-76
2021/03/24 10:19:32;;;;;;;30.05;26.80;;;;;;;39.27;8.61;100946.97;4992084;28;20062;-75
2021/03/24 10:22:07;;;;;;;28.92;25.80;;;;;;;39.70;8.70;100949.50;4992185;28;20085;-75
2021/03/24 10:24:42;;;;;;;31.00;27.67;;;;;;;40.00;8.15;100949.41;4988703;28;20069;-75
2021/03/24 10:27:13;;;;;;;28.33;25.33;;;;;;;40.29;7.94;100960.16;4989871;28;20057;-76
2021/03/24 10:29:48;;;;;;;29.00;25.90;;;;;;;40.34;7.50;100953.56;4984069;28;20054;-76
2021/03/24 10:32:28;;;;;;;29.20;26.10;;;;;;;40.73;7.55;100956.97;4991464;28;20058;-75
2021/03/24 10:35:03;;;;;;;28.50;25.50;;;;;;;41.17;7.64;100952.09;4989941;28;20507;-75
2021/03/24 10:37:41;;;;;;;30.77;27.48;;;;;;;41.37;7.23;100949.09;4987286;28;20408;-76
2021/03/24 10:40:15;;;;;;;30.05;26.85;;;;;;;40.80;7.08;100946.94;4987501;28;20050;-75
2021/03/24 10:42:51;;;;;;;30.38;27.17;;;;;;;40.58;6.95;100965.81;4989386;28;20054;-77
2021/03/24 10:45:21;;;;;;;29.85;26.50;;;;;;;39.54;7.78;100954.59;4990692;28;20062;-76
2021/03/24 10:47:54;;;;;;;30.42;26.92;;;;;;;39.21;7.92;100946.06;4990669;28;20051;-74
2021/03/24 10:50:30;;;;;;;29.42;26.35;;;;;;;39.50;7.99;100936.50;4995185;28;20058;-74
2021/03/24 10:53:13;;;;;;;27.75;24.85;;;;;;;39.57;8.20;100944.81;4995767;28;20065;-75
2021/03/24 10:55:43;;;;;;;28.10;25.10;;;;;;;39.56;7.74;100936.56;4982994;28;20054;-75
2021/03/24 10:58:32;;;;;;;27.85;24.70;;;;;;;40.17;8.11;100944.59;4996646;28;20055;-75
2021/03/24 11:01:10;;;;;;;27.90;24.75;;;;;;;40.86;7.72;100941.97;4995311;28;20062;-75
2021/03/24 11:03:42;;;;;;;;;;;;;;;40.33;8.01;100932.34;4995102;28;20054;-74
2021/03/24 11:06:14;;;;;;;27.65;24.80;;;;;;;41.00;7.31;100940.25;4991651;28;19922;-74
2021/03/24 11:08:45;;;;;;;28.23;25.33;;;;;;;38.88;8.36;100935.41;4994909;28;20069;-75
2021/03/24 11:11:18;;;;;;;28.05;25.15;;;;;;;39.53;8.16;100923.81;4995033;28;20439;-75
2021/03/24 11:13:56;;;;;;;28.08;23.98;;;;;;;40.53;8.02;100931.53;4995707;28;20065;-75
2021/03/24 11:16:27;;;;;;;;;;;;;;;40.61;7.36;100925.22;4997023;28;20058;-75
2021/03/24 11:18:57;;;;;;;26.98;24.08;;;;;;;41.18;7.10;100925.28;4996656;28;20268;-76
2021/03/24 11:21:34;;;;;;;25.08;22.48;;;;;;;41.18;7.42;100921.53;4995611;28;20050;-75
2021/03/24 11:24:18;;;;;;;26.17;23.38;;;;;;;40.95;7.64;100917.59;4995889;28;20157;-75
2021/03/24 11:27:03;;;;;;;26.63;23.50;;;;;;;41.34;7.34;100914.22;4994239;28;20059;-74
2021/03/24 11:29:34;;;;;;;27.50;24.10;;;;;;;41.65;6.26;100922.16;4994978;28;20154;-75
2021/03/24 11:32:04;;;;;;;26.20;23.42;;;;;;;41.82;6.52;100904.72;4994603;28;20065;-75
2021/03/24 11:34:38;;;;;;;25.10;22.33;;;;;;;40.33;7.41;100911.13;4995044;28;20065;-75
2021/03/24 11:37:23;;;;;;;26.15;23.20;;;;;;;41.44;6.91;100906.06;4993972;28;20058;-75
2021/03/24 11:39:56;;;;;;;26.13;22.50;;;;;;;41.84;6.88;100904.19;4994051;28;20054;-75
2021/03/24 11:42:24;;;;;;;25.85;22.70;;;;;;;42.56;6.49;100894.88;4990054;28;20046;-74
2021/03/24 11:44:52;;;;;;;24.83;22.27;;;;;;;42.87;5.33;100901.09;4993805;28;20042;-74
2021/03/24 11:47:42;;;;;;;25.30;22.65;;;;;;;42.40;6.00;100895.63;4993511;28;20046;-74
2021/03/24 11:50:17;;;;;;;24.55;21.88;;;;;;;41.49;6.34;100900.22;4987695;28;20050;-74
2021/03/24 11:52:57;;;;;;;24.70;22.10;;;;;;;41.31;6.31;100881.00;4993737;28;20058;-75
2021/03/24 11:55:39;;;;;;;23.90;21.20;;;;;;;42.05;6.80;100872.66;4971750;28;20054;-75
2021/03/24 11:58:22;;;;;;;25.00;22.27;;;;;;;42.42;6.10;100875.44;4991054;28;20054;-75
2021/03/24 12:00:57;;;;;;;24.38;21.73;;;;;;;42.60;5.82;100882.13;4990609;28;20058;-73
2021/03/24 12:03:46;;;;;;;23.10;20.20;;;;;;;40.84;6.46;100880.31;4993023;28;20054;-73